sensor_id;sensor_type;location;lat;lon;timestamp;temperature;humidity
20740;DHT22;10530;49.968;19.844;2022-12-10T00:01:56;1.70;99.90
20740;DHT22;10530;49.968;19.844;2022-12-10T00:06:59;1.70;99.90
20740;DHT22;10530;49.968;19.844;2022-12-10T00:12:02;1.70;99.90
20740;DHT22;10530;49.968;19.844;2022-12-10T00:17:05;1.70;99.90
20740;DHT22;10530;49.968;19.844;2022-12-10T00:22:14;1.70;99.90
20740;DHT22;10530;49.968;19.844;2022-12-10T00:27:16;1.70;99.90
20740;DHT22;10530;49.968;19.844;2022-12-10T00:32:19;1.70;99.90
20740;DHT22;10530;49.968;19.844;2022-12-10T00:37:22;1.80;99.90
20740;DHT22;10530;49.968;19.844;2022-12-10T00:42:26;1.70;99.90
20740;DHT22;10530;49.968;19.844;2022-12-10T00:47:28;1.70;99.90
20740;DHT22;10530;49.968;19.844;2022-12-10T00:52:49;1.70;99.90
20740;DHT22;10530;49.968;19.844;2022-12-10T00:57:52;1.70;99.90
20740;DHT22;10530;49.968;19.844;2022-12-10T01:02:55;1.70;99.90
20740;DHT22;10530;49.968;19.844;2022-12-10T01:07:58;1.70;99.90
20740;DHT22;10530;49.968;19.844;2022-12-10T01:13:03;1.70;99.90
20740;DHT22;10530;49.968;19.844;2022-12-10T01:18:06;1.70;99.90
20740;DHT22;10530;49.968;19.844;2022-12-10T01:23:08;1.80;99.90
20740;DHT22;10530;49.968;19.844;2022-12-10T01:28:12;1.70;99.90
20740;DHT22;10530;49.968;19.844;2022-12-10T01:33:14;1.80;99.90
20740;DHT22;10530;49.968;19.844;2022-12-10T01:38:17;1.80;99.90
20740;DHT22;10530;49.968;19.844;2022-12-10T01:43:20;1.70;99.90
20740;DHT22;10530;49.968;19.844;2022-12-10T01:48:23;1.70;99.90
20740;DHT22;10530;49.968;19.844;2022-12-10T01:53:26;1.70;99.90
20740;DHT22;10530;49.968;19.844;2022-12-10T01:58:30;1.70;99.90
20740;DHT22;10530;49.968;19.844;2022-12-10T02:14:14;1.70;99.90
20740;DHT22;10530;49.968;19.844;2022-12-10T02:19:56;1.80;99.90
20740;DHT22;10530;49.968;19.844;2022-12-10T02:25:02;1.70;99.90
20740;DHT22;10530;49.968;19.844;2022-12-10T02:30:09;1.80;99.90
20740;DHT22;10530;49.968;19.844;2022-12-10T02:35:21;1.70;99.90
20740;DHT22;10530;49.968;19.844;2022-12-10T02:40:30;1.70;99.90
20740;DHT22;10530;49.968;19.844;2022-12-10T02:45:37;1.80;99.90
20740;DHT22;10530;49.968;19.844;2022-12-10T02:50:41;1.70;99.90
20740;DHT22;10530;49.968;19.844;2022-12-10T02:56:42;1.60;99.90
20740;DHT22;10530;49.968;19.844;2022-12-10T03:07:04;1.70;99.90
20740;DHT22;10530;49.968;19.844;2022-12-10T03:12:29;1.70;99.90
20740;DHT22;10530;49.968;19.844;2022-12-10T03:17:34;1.70;99.90
20740;DHT22;10530;49.968;19.844;2022-12-10T03:22:39;1.70;99.90
20740;DHT22;10530;49.968;19.844;2022-12-10T03:27:45;1.70;99.90
20740;DHT22;10530;49.968;19.844;2022-12-10T03:32:52;1.70;99.90
20740;DHT22;10530;49.968;19.844;2022-12-10T03:37:55;1.60;99.90
20740;DHT22;10530;49.968;19.844;2022-12-10T03:42:58;1.70;99.90
20740;DHT22;10530;49.968;19.844;2022-12-10T03:48:01;1.70;99.90
20740;DHT22;10530;49.968;19.844;2022-12-10T03:53:04;1.70;99.90
20740;DHT22;10530;49.968;19.844;2022-12-10T03:58:06;1.70;99.90
20740;DHT22;10530;49.968;19.844;2022-12-10T04:03:09;1.60;99.90
20740;DHT22;10530;49.968;19.844;2022-12-10T04:08:12;1.70;99.90
20740;DHT22;10530;49.968;19.844;2022-12-10T04:13:14;1.70;99.90
20740;DHT22;10530;49.968;19.844;2022-12-10T04:18:36;1.70;99.90
20740;DHT22;10530;49.968;19.844;2022-12-10T04:23:38;1.70;99.90
20740;DHT22;10530;49.968;19.844;2022-12-10T04:29:00;1.60;99.90
20740;DHT22;10530;49.968;19.844;2022-12-10T04:34:02;1.60;99.90
20740;DHT22;10530;49.968;19.844;2022-12-10T04:39:05;1.60;99.90
20740;DHT22;10530;49.968;19.844;2022-12-10T04:44:09;1.70;99.90
20740;DHT22;10530;49.968;19.844;2022-12-10T04:49:12;1.70;99.90
20740;DHT22;10530;49.968;19.844;2022-12-10T04:54:15;1.70;99.90
20740;DHT22;10530;49.968;19.844;2022-12-10T04:59:18;1.70;99.90
20740;DHT22;10530;49.968;19.844;2022-12-10T05:04:21;1.70;99.90
20740;DHT22;10530;49.968;19.844;2022-12-10T05:09:24;1.70;99.90
20740;DHT22;10530;49.968;19.844;2022-12-10T05:14:27;1.70;99.90
20740;DHT22;10530;49.968;19.844;2022-12-10T05:19:29;1.70;99.90
20740;DHT22;10530;49.968;19.844;2022-12-10T05:24:33;1.70;99.90
20740;DHT22;10530;49.968;19.844;2022-12-10T05:29:35;1.70;99.90
20740;DHT22;10530;49.968;19.844;2022-12-10T05:34:38;1.60;99.90
20740;DHT22;10530;49.968;19.844;2022-12-10T05:39:41;1.60;99.90
20740;DHT22;10530;49.968;19.844;2022-12-10T05:44:44;1.70;99.90
20740;DHT22;10530;49.968;19.844;2022-12-10T05:49:46;1.70;99.90
20740;DHT22;10530;49.968;19.844;2022-12-10T05:54:53;1.70;99.90
20740;DHT22;10530;49.968;19.844;2022-12-10T05:59:56;1.70;99.90
20740;DHT22;10530;49.968;19.844;2022-12-10T06:04:59;1.70;99.90
20740;DHT22;10530;49.968;19.844;2022-12-10T06:10:02;1.70;99.90
20740;DHT22;10530;49.968;19.844;2022-12-10T06:15:06;1.70;99.90
20740;DHT22;10530;49.968;19.844;2022-12-10T06:20:09;1.80;99.90
20740;DHT22;10530;49.968;19.844;2022-12-10T06:25:12;1.80;99.90
20740;DHT22;10530;49.968;19.844;2022-12-10T06:30:15;1.80;99.90
20740;DHT22;10530;49.968;19.844;2022-12-10T06:35:18;1.80;99.90
20740;DHT22;10530;49.968;19.844;2022-12-10T06:40:21;1.80;99.90
20740;DHT22;10530;49.968;19.844;2022-12-10T06:45:23;1.80;99.90
20740;DHT22;10530;49.968;19.844;2022-12-10T06:50:27;1.70;99.90
20740;DHT22;10530;49.968;19.844;2022-12-10T06:55:29;1.80;99.90
20740;DHT22;10530;49.968;19.844;2022-12-10T07:00:32;1.80;99.90
20740;DHT22;10530;49.968;19.844;2022-12-10T07:05:35;1.80;99.90
20740;DHT22;10530;49.968;19.844;2022-12-10T07:10:38;1.80;99.90
20740;DHT22;10530;49.968;19.844;2022-12-10T07:15:41;1.80;99.90
20740;DHT22;10530;49.968;19.844;2022-12-10T07:20:44;1.90;99.90
20740;DHT22;10530;49.968;19.844;2022-12-10T07:25:46;2.00;99.90
20740;DHT22;10530;49.968;19.844;2022-12-10T07:30:49;2.00;99.90
20740;DHT22;10530;49.968;19.844;2022-12-10T07:35:52;2.00;99.90
20740;DHT22;10530;49.968;19.844;2022-12-10T07:40:55;2.00;99.90
20740;DHT22;10530;49.968;19.844;2022-12-10T07:46:06;2.10;99.90
20740;DHT22;10530;49.968;19.844;2022-12-10T07:51:10;2.20;99.90
20740;DHT22;10530;49.968;19.844;2022-12-10T07:56:13;2.20;99.90
20740;DHT22;10530;49.968;19.844;2022-12-10T08:01:21;2.30;99.90
20740;DHT22;10530;49.968;19.844;2022-12-10T08:06:26;2.40;99.90
20740;DHT22;10530;49.968;19.844;2022-12-10T08:11:29;2.50;99.90
20740;DHT22;10530;49.968;19.844;2022-12-10T08:16:33;2.40;99.90
20740;DHT22;10530;49.968;19.844;2022-12-10T08:21:36;2.40;99.90
20740;DHT22;10530;49.968;19.844;2022-12-10T08:26:38;2.50;99.90
20740;DHT22;10530;49.968;19.844;2022-12-10T08:31:41;2.40;99.90
20740;DHT22;10530;49.968;19.844;2022-12-10T08:36:45;2.40;99.90
20740;DHT22;10530;49.968;19.844;2022-12-10T08:41:48;2.30;99.90
20740;DHT22;10530;49.968;19.844;2022-12-10T08:46:50;2.30;99.90
20740;DHT22;10530;49.968;19.844;2022-12-10T08:51:54;2.40;99.90
20740;DHT22;10530;49.968;19.844;2022-12-10T08:56:57;2.50;99.90
20740;DHT22;10530;49.968;19.844;2022-12-10T09:02:00;2.50;99.90
20740;DHT22;10530;49.968;19.844;2022-12-10T09:07:03;2.60;99.90
20740;DHT22;10530;49.968;19.844;2022-12-10T09:12:11;2.60;99.90
20740;DHT22;10530;49.968;19.844;2022-12-10T09:17:14;2.60;99.90
20740;DHT22;10530;49.968;19.844;2022-12-10T09:22:21;2.60;99.90
20740;DHT22;10530;49.968;19.844;2022-12-10T09:27:25;2.50;99.90
20740;DHT22;10530;49.968;19.844;2022-12-10T09:32:28;2.50;99.90
20740;DHT22;10530;49.968;19.844;2022-12-10T09:37:31;2.60;99.90
20740;DHT22;10530;49.968;19.844;2022-12-10T09:42:58;2.60;99.90
20740;DHT22;10530;49.968;19.844;2022-12-10T09:48:20;2.70;99.90
20740;DHT22;10530;49.968;19.844;2022-12-10T09:53:24;2.70;99.90
20740;DHT22;10530;49.968;19.844;2022-12-10T09:58:29;2.70;99.90
20740;DHT22;10530;49.968;19.844;2022-12-10T10:03:38;3.00;99.90
20740;DHT22;10530;49.968;19.844;2022-12-10T10:08:46;2.90;99.90
20740;DHT22;10530;49.968;19.844;2022-12-10T10:13:54;2.80;99.90
20740;DHT22;10530;49.968;19.844;2022-12-10T10:19:33;3.00;99.90
20740;DHT22;10530;49.968;19.844;2022-12-10T10:24:39;3.10;99.90
20740;DHT22;10530;49.968;19.844;2022-12-10T10:29:50;3.20;99.90
20740;DHT22;10530;49.968;19.844;2022-12-10T10:34:59;3.30;99.90
20740;DHT22;10530;49.968;19.844;2022-12-10T10:40:03;3.20;99.90
20740;DHT22;10530;49.968;19.844;2022-12-10T10:56:17;3.10;99.90
20740;DHT22;10530;49.968;19.844;2022-12-10T11:01:45;3.10;99.90
20740;DHT22;10530;49.968;19.844;2022-12-10T11:06:50;3.20;99.90
20740;DHT22;10530;49.968;19.844;2022-12-10T11:12:04;3.00;99.90
20740;DHT22;10530;49.968;19.844;2022-12-10T11:22:19;3.00;99.90
20740;DHT22;10530;49.968;19.844;2022-12-10T11:32:56;2.90;99.90
20740;DHT22;10530;49.968;19.844;2022-12-10T12:21:07;2.70;99.90
20740;DHT22;10530;49.968;19.844;2022-12-10T12:32:12;2.50;99.90
20740;DHT22;10530;49.968;19.844;2022-12-10T12:37:20;2.60;99.90
20740;DHT22;10530;49.968;19.844;2022-12-10T12:53:02;2.50;99.90
20740;DHT22;10530;49.968;19.844;2022-12-10T13:08:48;2.50;99.90
20740;DHT22;10530;49.968;19.844;2022-12-10T13:51:43;2.30;99.90
20740;DHT22;10530;49.968;19.844;2022-12-10T14:07:50;2.30;99.90
20740;DHT22;10530;49.968;19.844;2022-12-10T14:12:56;2.20;99.90
20740;DHT22;10530;49.968;19.844;2022-12-10T14:18:03;2.20;99.90
20740;DHT22;10530;49.968;19.844;2022-12-10T14:23:28;2.20;99.90
20740;DHT22;10530;49.968;19.844;2022-12-10T14:28:59;2.30;99.90
20740;DHT22;10530;49.968;19.844;2022-12-10T14:34:08;2.20;99.90
20740;DHT22;10530;49.968;19.844;2022-12-10T14:39:22;2.20;99.90
20740;DHT22;10530;49.968;19.844;2022-12-10T14:44:27;2.20;99.90
20740;DHT22;10530;49.968;19.844;2022-12-10T14:49:32;2.20;99.90
20740;DHT22;10530;49.968;19.844;2022-12-10T14:54:45;2.10;99.90
20740;DHT22;10530;49.968;19.844;2022-12-10T15:00:18;2.10;99.90
20740;DHT22;10530;49.968;19.844;2022-12-10T15:05:25;2.00;99.90
20740;DHT22;10530;49.968;19.844;2022-12-10T15:10:31;2.10;99.90
20740;DHT22;10530;49.968;19.844;2022-12-10T15:36:48;2.10;99.90
20740;DHT22;10530;49.968;19.844;2022-12-10T15:41:55;2.00;99.90
20740;DHT22;10530;49.968;19.844;2022-12-10T15:47:12;2.00;99.90
20740;DHT22;10530;49.968;19.844;2022-12-10T15:52:18;2.00;99.90
20740;DHT22;10530;49.968;19.844;2022-12-10T15:57:27;2.00;99.90
20740;DHT22;10530;49.968;19.844;2022-12-10T16:02:52;1.90;99.90
20740;DHT22;10530;49.968;19.844;2022-12-10T16:08:00;2.00;99.90
20740;DHT22;10530;49.968;19.844;2022-12-10T16:13:05;1.90;99.90
20740;DHT22;10530;49.968;19.844;2022-12-10T16:18:10;1.90;99.90
20740;DHT22;10530;49.968;19.844;2022-12-10T16:23:13;1.90;99.90
20740;DHT22;10530;49.968;19.844;2022-12-10T16:28:19;1.90;99.90
20740;DHT22;10530;49.968;19.844;2022-12-10T16:33:25;1.90;99.90
20740;DHT22;10530;49.968;19.844;2022-12-10T16:38:28;1.80;99.90
20740;DHT22;10530;49.968;19.844;2022-12-10T16:43:31;1.90;99.90
20740;DHT22;10530;49.968;19.844;2022-12-10T16:48:35;1.80;99.90
20740;DHT22;10530;49.968;19.844;2022-12-10T16:53:38;1.80;99.90
20740;DHT22;10530;49.968;19.844;2022-12-10T16:58:42;1.70;99.90
20740;DHT22;10530;49.968;19.844;2022-12-10T17:03:45;1.80;99.90
20740;DHT22;10530;49.968;19.844;2022-12-10T17:08:49;1.70;99.90
20740;DHT22;10530;49.968;19.844;2022-12-10T17:13:52;1.80;99.90
20740;DHT22;10530;49.968;19.844;2022-12-10T17:18:55;1.70;99.90
20740;DHT22;10530;49.968;19.844;2022-12-10T17:23:58;1.70;99.90
20740;DHT22;10530;49.968;19.844;2022-12-10T17:29:16;1.70;99.90
20740;DHT22;10530;49.968;19.844;2022-12-10T17:34:19;1.80;99.90
20740;DHT22;10530;49.968;19.844;2022-12-10T17:39:25;1.70;99.90
20740;DHT22;10530;49.968;19.844;2022-12-10T17:44:31;1.70;99.90
20740;DHT22;10530;49.968;19.844;2022-12-10T17:49:33;1.70;99.90
20740;DHT22;10530;49.968;19.844;2022-12-10T17:54:37;1.70;99.90
20740;DHT22;10530;49.968;19.844;2022-12-10T17:59:40;1.70;99.90
20740;DHT22;10530;49.968;19.844;2022-12-10T18:04:45;1.70;99.90
20740;DHT22;10530;49.968;19.844;2022-12-10T18:09:48;1.70;99.90
20740;DHT22;10530;49.968;19.844;2022-12-10T18:14:51;1.70;99.90
20740;DHT22;10530;49.968;19.844;2022-12-10T18:19:54;1.70;99.90
20740;DHT22;10530;49.968;19.844;2022-12-10T18:24:57;1.60;99.90
20740;DHT22;10530;49.968;19.844;2022-12-10T18:30:00;1.80;99.90
20740;DHT22;10530;49.968;19.844;2022-12-10T18:35:03;1.70;99.90
20740;DHT22;10530;49.968;19.844;2022-12-10T18:40:10;1.70;99.90
20740;DHT22;10530;49.968;19.844;2022-12-10T18:45:14;1.70;99.90
20740;DHT22;10530;49.968;19.844;2022-12-10T18:50:24;1.60;99.90
20740;DHT22;10530;49.968;19.844;2022-12-10T18:55:27;1.70;99.90
20740;DHT22;10530;49.968;19.844;2022-12-10T19:00:31;1.70;99.90
20740;DHT22;10530;49.968;19.844;2022-12-10T19:05:37;1.60;99.90
20740;DHT22;10530;49.968;19.844;2022-12-10T19:10:40;1.60;99.90
20740;DHT22;10530;49.968;19.844;2022-12-10T19:15:43;1.50;99.90
20740;DHT22;10530;49.968;19.844;2022-12-10T19:20:47;1.60;99.90
20740;DHT22;10530;49.968;19.844;2022-12-10T19:25:55;1.60;99.90
20740;DHT22;10530;49.968;19.844;2022-12-10T19:30:59;1.60;99.90
20740;DHT22;10530;49.968;19.844;2022-12-10T19:36:02;1.70;99.90
20740;DHT22;10530;49.968;19.844;2022-12-10T19:41:05;1.70;99.90
20740;DHT22;10530;49.968;19.844;2022-12-10T19:46:23;1.70;99.90
20740;DHT22;10530;49.968;19.844;2022-12-10T19:51:27;1.70;99.90
20740;DHT22;10530;49.968;19.844;2022-12-10T19:56:31;1.60;99.90
20740;DHT22;10530;49.968;19.844;2022-12-10T20:01:35;1.70;99.90
20740;DHT22;10530;49.968;19.844;2022-12-10T20:06:41;1.60;99.90
20740;DHT22;10530;49.968;19.844;2022-12-10T20:11:45;1.70;99.90
20740;DHT22;10530;49.968;19.844;2022-12-10T20:16:50;1.60;99.90
20740;DHT22;10530;49.968;19.844;2022-12-10T20:21:53;1.70;99.90
20740;DHT22;10530;49.968;19.844;2022-12-10T20:26:56;1.60;99.90
20740;DHT22;10530;49.968;19.844;2022-12-10T20:31:59;1.70;99.90
20740;DHT22;10530;49.968;19.844;2022-12-10T20:37:02;1.70;99.90
20740;DHT22;10530;49.968;19.844;2022-12-10T20:42:05;1.60;99.90
20740;DHT22;10530;49.968;19.844;2022-12-10T20:47:09;1.60;99.90
20740;DHT22;10530;49.968;19.844;2022-12-10T20:52:13;1.60;99.90
20740;DHT22;10530;49.968;19.844;2022-12-10T20:57:16;1.60;99.90
20740;DHT22;10530;49.968;19.844;2022-12-10T21:02:19;1.50;99.90
20740;DHT22;10530;49.968;19.844;2022-12-10T21:07:22;1.60;99.90
20740;DHT22;10530;49.968;19.844;2022-12-10T21:12:25;1.50;99.90
20740;DHT22;10530;49.968;19.844;2022-12-10T21:17:28;1.50;99.90
20740;DHT22;10530;49.968;19.844;2022-12-10T21:22:31;1.50;99.90
20740;DHT22;10530;49.968;19.844;2022-12-10T21:27:34;1.50;99.90
20740;DHT22;10530;49.968;19.844;2022-12-10T21:32:37;1.50;99.90
20740;DHT22;10530;49.968;19.844;2022-12-10T21:37:40;1.40;99.90
20740;DHT22;10530;49.968;19.844;2022-12-10T21:42:43;1.50;99.90
20740;DHT22;10530;49.968;19.844;2022-12-10T21:48:05;1.50;99.90
20740;DHT22;10530;49.968;19.844;2022-12-10T21:53:09;1.50;99.90
20740;DHT22;10530;49.968;19.844;2022-12-10T21:58:12;1.50;99.90
20740;DHT22;10530;49.968;19.844;2022-12-10T22:03:15;1.50;99.90
20740;DHT22;10530;49.968;19.844;2022-12-10T22:08:19;1.50;99.90
20740;DHT22;10530;49.968;19.844;2022-12-10T22:13:22;1.50;99.90
20740;DHT22;10530;49.968;19.844;2022-12-10T22:18:25;1.50;99.90
20740;DHT22;10530;49.968;19.844;2022-12-10T22:23:29;1.50;99.90
20740;DHT22;10530;49.968;19.844;2022-12-10T22:28:32;1.50;99.90
20740;DHT22;10530;49.968;19.844;2022-12-10T22:33:36;1.40;99.90
20740;DHT22;10530;49.968;19.844;2022-12-10T22:38:39;1.50;99.90
20740;DHT22;10530;49.968;19.844;2022-12-10T22:43:42;1.50;99.90
20740;DHT22;10530;49.968;19.844;2022-12-10T22:48:53;1.50;99.90
20740;DHT22;10530;49.968;19.844;2022-12-10T22:53:56;1.60;99.90
20740;DHT22;10530;49.968;19.844;2022-12-10T22:59:01;1.60;99.90
20740;DHT22;10530;49.968;19.844;2022-12-10T23:04:04;1.50;99.90
20740;DHT22;10530;49.968;19.844;2022-12-10T23:09:07;1.50;99.90
20740;DHT22;10530;49.968;19.844;2022-12-10T23:14:10;1.60;99.90
20740;DHT22;10530;49.968;19.844;2022-12-10T23:19:13;1.60;99.90
20740;DHT22;10530;49.968;19.844;2022-12-10T23:24:15;1.50;99.90
20740;DHT22;10530;49.968;19.844;2022-12-10T23:29:18;1.50;99.90
20740;DHT22;10530;49.968;19.844;2022-12-10T23:34:21;1.40;99.90
20740;DHT22;10530;49.968;19.844;2022-12-10T23:39:24;1.50;99.90
20740;DHT22;10530;49.968;19.844;2022-12-10T23:44:27;1.50;99.90
20740;DHT22;10530;49.968;19.844;2022-12-10T23:49:29;1.50;99.90
20740;DHT22;10530;49.968;19.844;2022-12-10T23:54:32;1.50;99.90
20740;DHT22;10530;49.968;19.844;2022-12-10T23:59:36;1.60;99.90
